Time;durP1;ratioP1;P1;durP2;ratioP2;P2;SDS_P1;SDS_P2;PMS_P1;PMS_P2;Temp;Humidity;BMP_temperature;BMP_pressure;BME280_temperature;BME280_humidity;BME280_pressure;Samples;Min_cycle;Max_cycle;Signal;HPM_P1;HPM_P2
2021/06/07 00:01:17;;;;;;;2.53;1.25;;;;;;;17.70;100.00;97492.16;5038985;28;20562;-78
2021/06/07 00:03:42;;;;;;;1.55;1.35;;;;;;;17.49;100.00;97448.09;5027550;28;20032;-78
2021/06/07 00:06:08;;;;;;;1.08;0.85;;;;;;;17.68;100.00;97483.34;5018428;28;20126;-78
2021/06/07 00:08:34;;;;;;;1.38;0.80;;;;;;;17.64;100.00;97479.19;5041703;28;20127;-78
2021/06/07 00:10:59;;;;;;;1.40;0.60;;;;;;;17.70;100.00;97489.47;5025245;28;20044;-78
2021/06/07 00:13:26;;;;;;;1.50;0.85;;;;;;;17.61;100.00;97482.19;5041945;28;20028;-78
2021/06/07 00:15:56;;;;;;;0.98;0.80;;;;;;;17.46;100.00;97456.50;5033325;28;20036;-78
2021/06/07 00:18:23;;;;;;;0.77;0.75;;;;;;;17.60;100.00;97474.19;5025358;28;20059;-78
2021/06/07 00:20:54;;;;;;;0.98;0.80;;;;;;;17.51;100.00;97464.19;5026498;28;20029;-78
2021/06/07 00:23:21;;;;;;;0.85;0.85;;;;;;;17.64;100.00;97481.91;5064362;28;20021;-78
2021/06/07 00:25:51;;;;;;;0.75;0.75;;;;;;;17.72;100.00;97497.41;5042504;28;20029;-77
2021/06/07 00:28:17;;;;;;;2.90;1.35;;;;;;;17.66;100.00;97488.00;5045674;28;20032;-78
2021/06/07 00:30:43;;;;;;;1.45;1.25;;;;;;;17.60;100.00;97475.06;5027960;28;20028;-78
2021/06/07 00:33:08;;;;;;;2.17;1.02;;;;;;;17.64;100.00;97481.03;5024948;28;20029;-77
2021/06/07 00:35:34;;;;;;;2.60;1.65;;;;;;;17.60;100.00;97471.47;5034513;28;20032;-78
2021/06/07 00:38:00;;;;;;;2.03;1.05;;;;;;;17.26;100.00;97427.69;5047856;28;20037;-78
2021/06/07 00:40:27;;;;;;;1.67;0.80;;;;;;;17.64;100.00;97498.13;5039379;28;20032;-78
2021/06/07 00:42:54;;;;;;;0.82;0.80;;;;;;;17.53;100.00;97479.31;5036677;28;20083;-78
2021/06/07 00:45:26;;;;;;;2.88;0.98;;;;;;;17.58;100.00;97490.56;5044957;28;20029;-77
2021/06/07 00:47:53;;;;;;;0.85;0.45;;;;;;;17.49;100.00;97471.59;5046324;28;20408;-78
2021/06/07 00:50:37;;;;;;;1.25;1.15;;;;;;;17.44;100.00;97469.31;5029493;28;20389;-77
2021/06/07 00:53:05;;;;;;;3.72;1.05;;;;;;;17.34;100.00;97482.81;5032903;28;20408;-78
2021/06/07 00:55:37;;;;;;;2.28;1.38;;;;;;;17.31;100.00;97482.22;5024722;28;20029;-77
2021/06/07 00:58:03;;;;;;;1.20;1.02;;;;;;;17.22;100.00;97469.53;5024597;28;20043;-77
2021/06/07 01:00:29;;;;;;;0.77;0.73;;;;;;;17.31;100.00;97483.09;5038988;28;20557;-78
2021/06/07 01:02:57;;;;;;;3.75;1.42;;;;;;;17.34;100.00;97472.00;5043061;28;20037;-79
2021/06/07 01:05:24;;;;;;;1.60;0.77;;;;;;;17.24;100.00;97454.03;5044557;28;20047;-78
2021/06/07 01:07:50;;;;;;;1.05;0.82;;;;;;;17.04;100.00;97419.84;5052783;28;20055;-78
2021/06/07 01:10:17;;;;;;;1.00;0.75;;;;;;;17.20;100.00;97463.41;5041237;28;20515;-78
2021/06/07 01:12:42;;;;;;;1.65;0.90;;;;;;;17.20;100.00;97447.19;5040202;28;20103;-79
2021/06/07 01:15:09;;;;;;;0.90;0.70;;;;;;;17.31;100.00;97464.16;5042344;28;20027;-79
2021/06/07 01:17:35;;;;;;;0.68;0.68;;;;;;;17.14;100.00;97432.38;5047378;28;20559;-79
2021/06/07 01:20:01;;;;;;;2.17;0.63;;;;;;;17.28;100.00;97464.44;5036349;28;20111;-79
2021/06/07 01:22:26;;;;;;;1.08;0.70;;;;;;;17.24;100.00;97449.47;5048488;28;20025;-79
2021/06/07 01:24:52;;;;;;;1.30;1.05;;;;;;;17.24;100.00;97451.31;5041260;28;20088;-79
2021/06/07 01:27:18;;;;;;;0.88;0.68;;;;;;;17.12;100.00;97437.06;5021161;28;20020;-79
2021/06/07 01:29:44;;;;;;;1.33;0.80;;;;;;;17.17;100.00;97445.59;5029240;28;20119;-78
2021/06/07 01:32:10;;;;;;;1.48;1.00;;;;;;;17.36;100.00;97466.44;5043166;28;20462;-79
2021/06/07 01:34:35;;;;;;;1.40;0.95;;;;;;;17.32;100.00;97465.00;5036336;28;20024;-79
2021/06/07 01:37:02;;;;;;;0.85;0.65;;;;;;;17.38;100.00;97471.72;5027457;28;20481;-79
2021/06/07 01:39:28;;;;;;;1.48;0.85;;;;;;;17.31;100.00;97463.31;5027982;28;20450;-79
2021/06/07 01:41:56;;;;;;;1.20;1.00;;;;;;;17.23;100.00;97455.00;5060866;28;20054;-79
2021/06/07 01:44:22;;;;;;;0.60;0.60;;;;;;;17.34;100.00;97481.97;5019854;28;20028;-79
2021/06/07 01:46:49;;;;;;;0.63;0.63;;;;;;;17.19;100.00;97451.75;5027641;28;20023;-79
2021/06/07 01:49:15;;;;;;;1.02;0.77;;;;;;;17.22;100.00;97464.13;5044925;28;20024;-78
2021/06/07 01:51:41;;;;;;;1.23;0.77;;;;;;;17.16;100.00;97445.75;5043288;28;20098;-79
2021/06/07 01:54:07;;;;;;;1.75;0.82;;;;;;;17.18;100.00;97463.56;5044457;28;20143;-78
2021/06/07 01:56:33;;;;;;;1.13;1.08;;;;;;;16.80;100.00;97398.56;5040895;28;20482;-78
2021/06/07 01:58:58;;;;;;;0.85;0.82;;;;;;;17.11;100.00;97456.13;5058914;28;20029;-79
2021/06/07 02:01:25;;;;;;;1.55;1.05;;;;;;;17.10;100.00;97449.03;5027796;28;20120;-79
2021/06/07 02:03:51;;;;;;;1.00;0.90;;;;;;;17.20;100.00;97460.69;5019598;28;20112;-79
2021/06/07 02:06:22;;;;;;;2.15;0.68;;;;;;;17.06;100.00;97436.75;5029707;28;20556;-79
2021/06/07 02:08:48;;;;;;;1.77;0.95;;;;;;;17.17;100.00;97455.56;5040096;28;20567;-79
2021/06/07 02:11:20;;;;;;;5.60;1.30;;;;;;;17.14;100.00;97453.13;5020760;28;20037;-79
2021/06/07 02:13:51;;;;;;;1.77;0.90;;;;;;;17.17;100.00;97445.59;5030804;28;20032;-79
2021/06/07 02:16:22;;;;;;;0.75;0.52;;;;;;;17.01;100.00;97422.81;5045353;28;20328;-79
2021/06/07 02:18:48;;;;;;;2.00;1.00;;;;;;;17.34;100.00;97471.13;5026564;28;20040;-79
2021/06/07 02:21:15;;;;;;;1.55;0.90;;;;;;;17.23;100.00;97455.00;5029592;28;20512;-79
2021/06/07 02:23:41;;;;;;;1.98;0.90;;;;;;;17.09;100.00;97448.16;5040848;28;20509;-79
2021/06/07 02:26:07;;;;;;;1.15;0.57;;;;;;;16.92;100.00;97434.47;5038761;28;20112;-79
2021/06/07 02:28:33;;;;;;;1.17;1.05;;;;;;;17.15;100.00;97474.63;5044157;28;20040;-76
2021/06/07 02:30:59;;;;;;;0.77;0.77;;;;;;;17.09;100.00;97475.19;5043912;28;20419;-77
2021/06/07 02:33:26;;;;;;;0.85;0.70;;;;;;;17.00;100.00;97442.72;5045672;28;20115;-76
2021/06/07 02:35:52;;;;;;;0.50;0.50;;;;;;;17.06;100.00;97451.13;5048437;28;20392;-76
2021/06/07 02:38:18;;;;;;;1.48;1.38;;;;;;;17.20;100.00;97469.66;5044274;28;20113;-77
2021/06/07 02:40:46;;;;;;;0.95;0.75;;;;;;;17.21;100.00;97470.53;5043720;28;20044;-77
2021/06/07 02:43:11;;;;;;;1.08;0.63;;;;;;;17.22;100.00;97475.81;5028402;28;20033;-76
2021/06/07 02:45:37;;;;;;;1.13;1.02;;;;;;;17.30;100.00;97478.66;5046377;28;20081;-76
2021/06/07 02:48:03;;;;;;;1.73;1.52;;;;;;;17.30;100.00;97470.56;5071571;28;20024;-76
2021/06/07 02:50:32;;;;;;;5.18;1.95;;;;;;;17.19;100.00;97451.75;5038387;28;20464;-76
2021/06/07 02:52:58;;;;;;;1.88;1.67;;;;;;;17.35;100.00;97475.53;5043161;28;20109;-76
2021/06/07 02:55:23;;;;;;;1.75;1.10;;;;;;;17.40;100.00;97475.13;5039459;28;20033;-76
2021/06/07 02:57:51;;;;;;;0.68;0.50;;;;;;;17.31;100.00;97463.31;5055939;28;20040;-77
2021/06/07 03:00:21;;;;;;;1.30;0.47;;;;;;;17.35;100.00;97487.22;5027382;28;20403;-77
2021/06/07 03:02:47;;;;;;;0.57;0.57;;;;;;;17.22;100.00;97464.13;5066721;28;20108;-78
2021/06/07 03:05:13;;;;;;;0.45;0.45;;;;;;;17.19;100.00;97475.22;5045463;28;20028;-78
2021/06/07 03:07:38;;;;;;;0.52;0.52;;;;;;;17.33;100.00;97489.22;5043368;28;20024;-74
2021/06/07 03:10:06;;;;;;;2.63;0.88;;;;;;;17.35;100.00;97491.75;5049791;28;20040;-74
2021/06/07 03:12:32;;;;;;;0.50;0.43;;;;;;;17.38;100.00;97499.59;5043035;28;20460;-75
2021/06/07 03:14:57;;;;;;;0.40;0.40;;;;;;;17.30;100.00;97475.09;5064823;28;20036;-75
2021/06/07 03:17:23;;;;;;;1.08;0.82;;;;;;;17.26;100.00;97466.41;5069560;28;20024;-75
2021/06/07 03:19:48;;;;;;;0.55;0.55;;;;;;;17.41;100.00;97503.91;5052282;28;20397;-75
2021/06/07 03:22:14;;;;;;;2.17;1.10;;;;;;;17.43;100.00;97502.75;5042352;28;20047;-75
2021/06/07 03:24:40;;;;;;;1.17;1.00;;;;;;;17.39;100.00;97482.38;5044150;28;20028;-75
2021/06/07 03:27:06;;;;;;;9.40;1.45;;;;;;;17.34;100.00;97463.03;5036577;28;20029;-74
2021/06/07 03:29:31;;;;;;;4.80;1.35;;;;;;;17.44;100.00;97469.31;5053241;28;20059;-75
2021/06/07 03:31:58;;;;;;;0.88;0.70;;;;;;;17.51;100.00;97481.28;5065641;28;20468;-74
2021/06/07 03:34:23;;;;;;;0.88;0.75;;;;;;;17.58;100.00;97487.88;5050320;28;20460;-74
2021/06/07 03:36:49;;;;;;;2.08;1.38;;;;;;;17.60;100.00;97496.69;5065700;28;20095;-74
2021/06/07 03:39:14;;;;;;;0.50;0.50;;;;;;;17.60;100.00;97507.50;5053027;28;20035;-74
2021/06/07 03:41:40;;;;;;;1.00;0.60;;;;;;;17.56;100.00;97492.56;5051730;28;20075;-74
2021/06/07 03:44:06;;;;;;;0.68;0.68;;;;;;;17.63;100.00;97487.44;5053240;28;20092;-75
2021/06/07 03:46:31;;;;;;;3.90;0.90;;;;;;;17.74;100.00;97499.00;5064698;28;20150;-74
2021/06/07 03:48:57;;;;;;;1.95;0.93;;;;;;;17.78;100.00;97499.59;5069806;28;20077;-74
2021/06/07 03:51:22;;;;;;;0.95;0.80;;;;;;;17.83;100.00;97492.75;5063688;28;20392;-75
2021/06/07 03:53:48;;;;;;;2.13;1.05;;;;;;;17.87;100.00;97506.88;5067958;28;20020;-75
2021/06/07 03:56:13;;;;;;;1.40;0.93;;;;;;;17.91;100.00;97500.16;5061922;28;20033;-74
2021/06/07 03:58:39;;;;;;;0.60;0.60;;;;;;;17.83;100.00;97495.47;5064042;28;20055;-74
2021/06/07 04:01:04;;;;;;;1.42;0.60;;;;;;;17.84;100.00;97486.31;5060670;28;20032;-74
2021/06/07 04:03:33;;;;;;;2.05;1.27;;;;;;;17.80;100.00;97476.81;5043284;28;20028;-74
2021/06/07 04:05:58;;;;;;;1.30;0.95;;;;;;;17.90;100.00;97489.47;5046544;28;20025;-75
2021/06/07 04:08:24;;;;;;;2.08;0.90;;;;;;;17.94;100.00;97480.91;5025135;28;20036;-75
2021/06/07 04:10:49;;;;;;;0.73;0.70;;;;;;;18.06;100.00;97498.72;5060864;28;20100;-75
2021/06/07 04:13:15;;;;;;;2.05;1.20;;;;;;;18.00;100.00;97504.72;5064282;28;20089;-75
2021/06/07 04:15:40;;;;;;;1.95;1.17;;;;;;;18.02;100.00;97501.88;5037908;28;20499;-75
2021/06/07 04:18:06;;;;;;;1.13;1.02;;;;;;;18.07;100.00;97502.28;5068652;28;20032;-76
2021/06/07 04:20:32;;;;;;;2.60;1.48;;;;;;;18.10;100.00;97504.72;5057123;28;20512;-76
2021/06/07 04:22:58;;;;;;;1.63;1.17;;;;;;;17.97;100.00;97483.34;5038536;28;20031;-76
2021/06/07 04:25:25;;;;;;;1.30;1.17;;;;;;;18.22;100.00;97509.00;5063952;28;20384;-76
2021/06/07 04:27:52;;;;;;;0.82;0.70;;;;;;;18.29;100.00;97515.56;5062236;28;20029;-81
2021/06/07 04:30:19;;;;;;;1.27;1.00;;;;;;;18.44;100.00;97519.53;5046244;28;20029;-80
2021/06/07 04:32:46;;;;;;;2.30;1.25;;;;;;;18.57;100.00;97517.41;5043223;28;20044;-75
2021/06/07 04:35:13;;;;;;;0.52;0.52;;;;;;;18.63;100.00;97503.28;5063238;28;20029;-76
2021/06/07 04:37:43;;;;;;;1.52;0.52;;;;;;;18.84;100.00;97520.19;5068017;28;20504;-76
2021/06/07 04:40:12;;;;;;;1.73;0.90;;;;;;;18.96;100.00;97515.44;5040804;28;20411;-76
2021/06/07 04:42:38;;;;;;;0.85;0.85;;;;;;;19.15;100.00;97526.22;5034333;28;20068;-75
2021/06/07 04:45:06;;;;;;;1.65;1.15;;;;;;;19.24;100.00;97508.19;5045227;28;20020;-75
2021/06/07 04:47:31;;;;;;;1.00;0.65;;;;;;;19.34;100.00;97517.16;5042653;28;20474;-76
2021/06/07 04:49:57;;;;;;;0.73;0.73;;;;;;;19.43;100.00;97522.56;5066006;28;20053;-76
2021/06/07 04:52:23;;;;;;;2.60;0.90;;;;;;;19.39;100.00;97520.25;5059948;28;20107;-75
2021/06/07 04:54:48;;;;;;;1.17;0.80;;;;;;;19.39;100.00;97523.88;5050073;28;20032;-75
2021/06/07 04:57:14;;;;;;;4.45;1.75;;;;;;;19.59;100.00;97535.50;5044993;28;20035;-75
2021/06/07 04:59:39;;;;;;;2.42;1.45;;;;;;;19.74;100.00;97533.13;5061907;28;20054;-76
2021/06/07 05:02:05;;;;;;;1.90;0.95;;;;;;;19.53;100.00;97514.38;5069042;28;20046;-76
2021/06/07 05:04:31;;;;;;;0.70;0.70;;;;;;;19.60;100.00;97531.75;5044377;28;20012;-76
2021/06/07 05:06:56;;;;;;;0.82;0.82;;;;;;;19.69;100.00;97538.97;5040764;28;20017;-76
2021/06/07 05:09:22;;;;;;;0.63;0.32;;;;;;;19.72;100.00;97540.56;5016415;28;20477;-76
2021/06/07 05:11:47;;;;;;;0.68;0.68;;;;;;;19.96;100.00;97533.53;5032783;28;20393;-76
2021/06/07 05:14:13;;;;;;;0.90;0.68;;;;;;;20.16;99.47;97527.97;5022216;28;20101;-76
2021/06/07 05:16:38;;;;;;;6.18;1.48;;;;;;;20.33;98.21;97541.56;5052686;28;20565;-76
2021/06/07 05:19:04;;;;;;;3.50;1.42;;;;;;;20.62;96.45;97530.44;5070790;28;20052;-76
2021/06/07 05:21:29;;;;;;;5.95;1.10;;;;;;;20.80;95.52;97519.53;5036011;28;20082;-77
2021/06/07 05:23:55;;;;;;;1.40;0.85;;;;;;;21.09;90.73;97547.31;5071521;28;20053;-76
2021/06/07 05:26:21;;;;;;;1.52;0.93;;;;;;;21.17;89.01;97541.91;5074337;28;20044;-77
2021/06/07 05:28:46;;;;;;;0.70;0.68;;;;;;;21.34;87.20;97526.53;5074307;28;20025;-76
2021/06/07 05:31:12;;;;;;;1.77;1.05;;;;;;;21.84;83.93;97540.19;5074742;28;20083;-76
2021/06/07 05:33:38;;;;;;;1.77;1.20;;;;;;;22.39;80.31;97535.06;5056218;28;20130;-76
2021/06/07 05:36:04;;;;;;;3.30;2.05;;;;;;;23.01;76.37;97530.84;5074164;28;20103;-76
2021/06/07 05:38:29;;;;;;;2.17;1.05;;;;;;;23.59;74.07;97546.94;5056055;28;20079;-76
2021/06/07 05:40:56;;;;;;;1.10;0.93;;;;;;;23.89;72.32;97546.13;5073908;28;20136;-76
2021/06/07 05:43:23;;;;;;;6.50;1.45;;;;;;;24.32;69.79;97560.25;5074196;28;20028;-76
2021/06/07 05:45:51;;;;;;;0.73;0.73;;;;;;;24.89;68.12;97568.94;5073691;28;20032;-76
2021/06/07 05:48:17;;;;;;;1.85;1.10;;;;;;;24.72;67.51;97566.31;5056296;28;20046;-76
2021/06/07 05:50:42;;;;;;;1.08;0.98;;;;;;;24.16;70.06;97558.47;5056083;28;20058;-76
2021/06/07 05:53:08;;;;;;;1.50;1.02;;;;;;;24.21;70.31;97558.75;5055998;28;20101;-77
2021/06/07 05:55:36;;;;;;;1.05;0.90;;;;;;;24.36;69.41;97539.72;5048335;28;20033;-76
2021/06/07 05:58:05;;;;;;;2.10;1.25;;;;;;;24.78;69.00;97551.03;5039099;28;20055;-75
2021/06/07 06:00:34;;;;;;;0.82;0.60;;;;;;;26.39;62.73;97568.44;5032119;28;20028;-75
2021/06/07 06:03:00;;;;;;;1.15;1.00;;;;;;;27.15;59.02;97542.22;5035778;28;20036;-76
2021/06/07 06:05:26;;;;;;;1.42;0.98;;;;;;;27.20;58.03;97547.94;5035732;28;20037;-76
2021/06/07 06:07:52;;;;;;;3.60;1.27;;;;;;;27.44;56.16;97553.03;5035706;28;20439;-75
2021/06/07 06:10:17;;;;;;;0.52;0.52;;;;;;;26.91;56.91;97564.59;5035865;28;20078;-76
2021/06/07 06:12:44;;;;;;;1.40;1.15;;;;;;;27.84;55.76;97550.53;5035774;28;20094;-76
2021/06/07 06:15:11;;;;;;;4.05;1.20;;;;;;;28.90;51.51;97560.91;5035732;28;20059;-75
2021/06/07 06:17:37;;;;;;;2.20;1.52;;;;;;;28.80;50.82;97574.22;5019253;28;20040;-76
2021/06/07 06:20:04;;;;;;;4.25;1.48;;;;;;;28.53;52.79;97567.78;5018819;28;20118;-76
2021/06/07 06:22:29;;;;;;;0.80;0.77;;;;;;;26.20;56.00;97535.31;5035479;28;20116;-76
2021/06/07 06:24:55;;;;;;;1.10;0.95;;;;;;;26.25;58.32;97561.13;5052913;28;20479;-76
2021/06/07 06:27:21;;;;;;;1.85;1.13;;;;;;;26.19;58.86;97569.25;5053274;28;20021;-76
2021/06/07 06:29:47;;;;;;;8.00;1.92;;;;;;;25.14;61.86;97553.97;5053643;28;20408;-75
2021/06/07 06:32:12;;;;;;;0.98;0.65;;;;;;;25.42;61.80;97535.03;5073262;28;20020;-76
2021/06/07 06:34:39;;;;;;;2.55;0.93;;;;;;;26.10;59.29;97565.75;5054819;28;20035;-76
2021/06/07 06:37:05;;;;;;;1.08;1.00;;;;;;;26.33;57.34;97550.00;5054809;28;20048;-75
2021/06/07 06:39:31;;;;;;;0.82;0.82;;;;;;;26.47;57.09;97550.16;5055166;28;20408;-76
2021/06/07 06:41:57;;;;;;;0.98;0.93;;;;;;;26.63;57.81;97566.41;5038351;28;20054;-76
2021/06/07 06:44:23;;;;;;;0.40;0.40;;;;;;;26.90;55.81;97565.63;5055307;28;20082;-75
2021/06/07 06:46:49;;;;;;;1.35;1.10;;;;;;;26.82;55.66;97555.66;5072932;28;20395;-76
2021/06/07 06:49:14;;;;;;;1.60;0.93;;;;;;;26.78;56.34;97550.72;5054947;28;20129;-76
2021/06/07 06:51:40;;;;;;;0.63;0.63;;;;;;;26.64;56.41;97541.47;5072966;28;20151;-75
2021/06/07 06:54:06;;;;;;;4.30;1.55;;;;;;;26.26;57.99;97561.97;5054346;28;20464;-75
2021/06/07 06:56:32;;;;;;;1.20;0.80;;;;;;;26.51;58.66;97552.34;5054795;28;20439;-75
2021/06/07 06:58:59;;;;;;;3.25;1.08;;;;;;;27.04;55.80;97566.63;5053404;28;20024;-75
2021/06/07 07:01:26;;;;;;;1.77;1.05;;;;;;;27.00;54.38;97557.06;5035040;28;20035;-75
2021/06/07 07:03:52;;;;;;;0.77;0.77;;;;;;;27.03;56.11;97542.94;5034664;28;20032;-75
2021/06/07 07:06:18;;;;;;;0.95;0.95;;;;;;;26.68;55.02;97561.16;5052537;28;20025;-76
2021/06/07 07:08:44;;;;;;;0.30;0.28;;;;;;;26.93;54.52;97552.38;5052415;28;20032;-76
2021/06/07 07:11:11;;;;;;;0.50;0.50;;;;;;;26.69;55.01;97560.13;5034415;28;20086;-76
2021/06/07 07:13:37;;;;;;;2.05;1.08;;;;;;;26.48;55.75;97560.97;5034999;28;20021;-76
2021/06/07 07:16:03;;;;;;;0.68;0.68;;;;;;;26.00;56.76;97548.75;5036221;28;20029;-76
2021/06/07 07:18:28;;;;;;;1.10;0.93;;;;;;;25.42;57.51;97546.84;5072242;28;20033;-76
2021/06/07 07:20:54;;;;;;;9.82;8.00;;;;;;;25.63;58.51;97552.47;5072362;28;20503;-77
2021/06/07 07:23:20;;;;;;;16.48;8.68;;;;;;;26.17;56.72;97563.97;5054493;28;20024;-77
2021/06/07 07:25:47;;;;;;;10.77;8.27;;;;;;;27.07;54.70;97566.22;5072326;28;20041;-77
2021/06/07 07:28:13;;;;;;;14.45;8.38;;;;;;;28.09;53.58;97572.88;5071863;28;20426;-77
2021/06/07 07:30:39;;;;;;;30.70;8.20;;;;;;;29.35;49.74;97582.16;5048265;28;20036;-75
2021/06/07 07:33:06;;;;;;;17.90;8.00;;;;;;;30.07;46.96;97561.91;5034064;28;20077;-74
2021/06/07 07:35:32;;;;;;;15.32;7.90;;;;;;;30.27;45.63;97573.72;5034203;28;20025;-75
2021/06/07 07:37:58;;;;;;;18.55;8.32;;;;;;;30.69;46.33;97585.25;5051309;28;20136;-75
2021/06/07 07:40:24;;;;;;;12.77;8.32;;;;;;;30.72;44.71;97587.56;5034045;28;20064;-75
2021/06/07 07:42:53;;;;;;;12.32;7.30;;;;;;;29.86;45.24;97587.03;5051954;28;20032;-75
2021/06/07 07:45:20;;;;;;;15.65;8.68;;;;;;;29.75;46.00;97584.91;5034057;28;20071;-76
2021/06/07 07:47:46;;;;;;;16.70;8.45;;;;;;;29.99;45.57;97590.56;5033081;28;20044;-76
2021/06/07 07:50:16;;;;;;;11.48;8.13;;;;;;;29.81;44.48;97590.38;5033521;28;20033;-77
2021/06/07 07:52:42;;;;;;;10.63;7.57;;;;;;;29.62;46.19;97565.59;5033516;28;20040;-76
2021/06/07 07:55:10;;;;;;;16.25;8.30;;;;;;;29.55;47.25;97585.75;5033520;28;20082;-76
2021/06/07 07:57:36;;;;;;;11.98;6.82;;;;;;;28.98;44.87;97585.47;5019904;28;20560;-76
2021/06/07 08:00:05;;;;;;;12.95;7.95;;;;;;;29.66;44.74;97580.63;5053532;28;20032;-76
2021/06/07 08:02:30;;;;;;;10.57;7.20;;;;;;;28.55;43.72;97576.66;5071587;28;20033;-76
2021/06/07 08:04:56;;;;;;;11.55;7.55;;;;;;;28.96;45.28;97584.84;5071264;28;20055;-76
2021/06/07 08:07:22;;;;;;;11.45;7.68;;;;;;;28.73;43.66;97584.41;5071200;28;20032;-76
2021/06/07 08:09:49;;;;;;;13.90;6.55;;;;;;;28.08;44.91;97580.31;5064813;28;20063;-76
2021/06/07 08:12:15;;;;;;;14.02;6.45;;;;;;;28.20;44.53;97573.19;5069873;28;20093;-76
2021/06/07 08:14:40;;;;;;;12.02;7.80;;;;;;;27.98;45.79;97566.06;5053189;28;20037;-76
2021/06/07 08:17:06;;;;;;;10.60;7.55;;;;;;;28.49;47.21;97583.84;5053039;28;20033;-76
2021/06/07 08:19:32;;;;;;;10.73;6.63;;;;;;;28.38;44.92;97581.72;5036144;28;20035;-76
2021/06/07 08:21:57;;;;;;;8.55;6.22;;;;;;;28.31;46.07;97569.81;5071122;28;20449;-76
2021/06/07 08:24:23;;;;;;;9.10;6.82;;;;;;;27.72;47.41;97576.88;5070821;28;20047;-76
2021/06/07 08:26:49;;;;;;;18.90;7.57;;;;;;;27.67;47.44;97561.00;5052955;28;20028;-76
2021/06/07 08:29:14;;;;;;;12.10;7.47;;;;;;;27.81;48.07;97571.03;5070690;28;20034;-76
2021/06/07 08:31:40;;;;;;;13.15;6.53;;;;;;;28.11;47.14;97587.31;5053223;28;20063;-76
2021/06/07 08:34:06;;;;;;;10.02;6.57;;;;;;;28.71;44.93;97587.34;5052668;28;20036;-76
2021/06/07 08:36:33;;;;;;;8.57;6.38;;;;;;;30.14;43.48;97595.00;5023972;28;20407;-76
2021/06/07 08:38:58;;;;;;;7.63;6.32;;;;;;;30.58;42.61;97593.16;5033204;28;20052;-76
2021/06/07 08:41:25;;;;;;;11.23;6.82;;;;;;;30.86;42.16;97594.69;5032943;28;20029;-77
2021/06/07 08:43:50;;;;;;;12.32;6.55;;;;;;;29.91;42.44;97592.72;5033236;28;20130;-76
2021/06/07 08:46:16;;;;;;;9.30;6.93;;;;;;;29.50;43.86;97593.81;5033172;28;20495;-76
2021/06/07 08:48:43;;;;;;;8.43;6.63;;;;;;;28.98;46.13;97588.25;5033226;28;20017;-76
2021/06/07 08:51:09;;;;;;;9.77;6.32;;;;;;;29.12;45.04;97587.22;5050853;28;20052;-77
2021/06/07 08:53:35;;;;;;;9.73;6.70;;;;;;;30.06;44.47;97594.16;5051123;28;20066;-76
2021/06/07 08:56:00;;;;;;;6.85;6.07;;;;;;;30.29;43.33;97577.13;5051024;28;20041;-76
2021/06/07 08:58:27;;;;;;;13.25;6.32;;;;;;;30.19;43.16;97581.41;5035100;28;20031;-77
2021/06/07 09:00:52;;;;;;;11.90;7.28;;;;;;;29.22;44.42;97575.78;5037172;28;20423;-76
2021/06/07 09:03:20;;;;;;;11.27;6.75;;;;;;;29.15;45.63;97577.66;5054736;28;20028;-76
2021/06/07 09:05:53;;;;;;;9.82;6.85;;;;;;;29.45;43.66;97543.13;5020632;28;20036;-76
2021/06/07 09:08:20;;;;;;;8.63;7.00;;;;;;;29.64;43.86;97574.50;5036922;28;20029;-77
2021/06/07 09:10:49;;;;;;;9.35;7.50;;;;;;;28.85;45.98;97568.97;5037093;28;20059;-76
2021/06/07 09:13:16;;;;;;;16.90;7.53;;;;;;;28.37;46.65;97569.00;5036712;28;20054;-75
2021/06/07 09:15:47;;;;;;;11.63;7.35;;;;;;;27.95;48.00;97563.72;5036988;28;20025;-76
2021/06/07 09:18:15;;;;;;;16.08;7.82;;;;;;;27.69;49.44;97567.13;5054498;28;20468;-76
2021/06/07 09:20:42;;;;;;;12.30;8.30;;;;;;;26.87;51.29;97555.91;5036727;28;20037;-76
2021/06/07 09:23:12;;;;;;;9.27;7.65;;;;;;;26.50;53.20;97555.28;5036662;28;20029;-76
2021/06/07 09:25:47;;;;;;;11.43;7.90;;;;;;;26.15;54.82;97545.97;5036965;28;20378;-75
2021/06/07 09:28:21;;;;;;;10.35;8.02;;;;;;;26.23;56.22;97549.50;5019749;28;20484;-76
2021/06/07 09:30:46;;;;;;;14.13;7.75;;;;;;;26.22;55.64;97547.78;5054419;28;20044;-76
2021/06/07 09:33:27;;;;;;;12.00;7.95;;;;;;;26.08;55.82;97545.06;5054348;28;20024;-76
2021/06/07 09:36:11;;;;;;;11.57;8.38;;;;;;;25.71;57.77;97515.91;5054318;28;20040;-76
2021/06/07 09:38:55;;;;;;;17.23;8.23;;;;;;;25.61;60.24;97537.25;5065823;28;20107;-75
2021/06/07 09:41:21;;;;;;;9.55;8.10;;;;;;;25.44;59.42;97535.72;5073994;28;20114;-76
2021/06/07 09:43:58;;;;;;;12.82;7.60;;;;;;;25.24;60.22;97536.25;5039693;28;20610;-76
2021/06/07 09:46:26;;;;;;;20.65;8.40;;;;;;;24.95;61.76;97544.41;5073835;28;20032;-76
2021/06/07 09:49:05;;;;;;;10.30;8.15;;;;;;;24.67;63.05;97537.78;5056203;28;20024;-76
2021/06/07 09:51:31;;;;;;;20.88;8.30;;;;;;;24.56;65.08;97538.19;5056169;28;20025;-76
2021/06/07 09:53:57;;;;;;;8.48;7.45;;;;;;;24.43;65.12;97546.16;5056208;28;20522;-76
2021/06/07 09:56:24;;;;;;;10.25;7.97;;;;;;;24.10;67.43;97521.75;5055821;28;20028;-76
2021/06/07 09:58:50;;;;;;;11.02;7.75;;;;;;;23.95;66.29;97539.94;5055890;28;20384;-76
2021/06/07 10:01:21;;;;;;;12.15;7.43;;;;;;;23.67;66.08;97530.50;5073643;28;20020;-76
2021/06/07 10:03:53;;;;;;;9.05;7.60;;;;;;;23.36;67.70;97522.22;5055902;28;20472;-76
2021/06/07 10:06:33;;;;;;;11.10;7.65;;;;;;;23.26;69.87;97534.38;5038938;28;20051;-76
2021/06/07 10:09:00;;;;;;;6.55;5.88;;;;;;;23.15;67.68;97539.16;5036485;28;20024;-76
2021/06/07 10:11:37;;;;;;;6.82;6.05;;;;;;;22.90;67.65;97540.22;5044774;28;20025;-76
2021/06/07 10:14:11;;;;;;;6.90;5.70;;;;;;;22.64;68.80;97544.97;5073561;28;20028;-75
2021/06/07 10:16:38;;;;;;;8.68;6.03;;;;;;;22.57;71.87;97544.81;5073300;28;20028;-75
2021/06/07 10:19:15;;;;;;;8.20;5.63;;;;;;;22.42;70.49;97540.19;5039056;28;20056;-75
2021/06/07 10:21:41;;;;;;;8.38;5.43;;;;;;;22.42;69.06;97535.59;5073293;28;20023;-75
2021/06/07 10:24:07;;;;;;;7.85;5.18;;;;;;;22.34;67.46;97540.16;5073424;28;20021;-75
2021/06/07 10:26:32;;;;;;;6.30;5.05;;;;;;;22.38;68.68;97544.25;5055292;28;20066;-76
2021/06/07 10:28:58;;;;;;;7.30;5.28;;;;;;;22.46;70.14;97536.06;5055473;28;20124;-76
2021/06/07 10:31:26;;;;;;;9.15;5.38;;;;;;;22.49;70.76;97524.84;5064114;28;20017;-75
2021/06/07 10:34:03;;;;;;;9.15;5.05;;;;;;;22.65;67.74;97527.59;5018780;28;20024;-76
2021/06/07 10:36:35;;;;;;;7.32;5.03;;;;;;;22.75;67.49;97531.03;5034909;28;20056;-75
2021/06/07 10:39:12;;;;;;;9.57;5.82;;;;;;;22.89;69.38;97524.84;5066880;28;20066;-75
2021/06/07 10:41:39;;;;;;;10.80;5.72;;;;;;;23.14;71.20;97522.94;5072949;28;20395;-76
2021/06/07 10:44:05;;;;;;;10.55;5.85;;;;;;;23.36;69.26;97522.22;5055375;28;20025;-76
2021/06/07 10:46:30;;;;;;;9.80;5.80;;;;;;;23.51;67.36;97522.34;5054935;28;20107;-76
2021/06/07 10:48:57;;;;;;;8.48;5.45;;;;;;;23.58;68.29;97524.22;5072901;28;20146;-76
2021/06/07 10:51:34;;;;;;;11.65;6.38;;;;;;;23.62;66.99;97522.00;5054768;28;20468;-76
2021/06/07 10:54:31;;;;;;;9.10;6.20;;;;;;;23.82;66.05;97530.59;5054819;28;20028;-76
2021/06/07 10:57:31;;;;;;;15.77;6.95;;;;;;;23.70;68.61;97530.13;5054859;28;20024;-76
2021/06/07 11:00:17;;;;;;;11.05;7.10;;;;;;;23.54;68.07;97527.47;5050145;28;20119;-76
2021/06/07 11:02:46;;;;;;;11.38;8.43;;;;;;;22.88;72.26;97501.34;5052476;28;20025;-76
2021/06/07 11:05:19;;;;;;;18.08;10.25;;;;;;;22.68;75.24;97510.91;5034780;28;20025;-76
2021/06/07 11:07:59;;;;;;;15.68;10.80;;;;;;;22.30;76.13;97503.38;5052270;28;20036;-76
2021/06/07 11:10:25;;;;;;;12.93;10.98;;;;;;;22.33;77.33;97530.28;5034248;28;20049;-77
2021/06/07 11:13:00;;;;;;;14.93;10.98;;;;;;;22.15;77.52;97501.28;5063892;28;20220;-75
2021/06/07 11:15:34;;;;;;;13.43;10.57;;;;;;;22.26;80.51;97523.81;5054510;28;20032;-75
2021/06/07 11:18:18;;;;;;;11.32;9.38;;;;;;;22.51;76.17;97528.25;5054453;28;20033;-75
2021/06/07 11:20:44;;;;;;;14.85;10.60;;;;;;;22.80;76.17;97514.13;5053862;28;20064;-75
2021/06/07 11:23:12;;;;;;;12.02;8.50;;;;;;;22.80;71.28;97506.78;5072090;28;20467;-75
2021/06/07 11:25:48;;;;;;;11.60;9.25;;;;;;;22.75;73.29;97517.38;5054175;28;20044;-75
2021/06/07 11:28:32;;;;;;;11.70;8.43;;;;;;;22.89;72.70;97519.41;5054109;28;20032;-75